Time;durP1;ratioP1;P1;durP2;ratioP2;P2;SDS_P1;SDS_P2;PMS_P1;PMS_P2;Temp;Humidity;BMP_temperature;BMP_pressure;BME280_temperature;BME280_humidity;BME280_pressure;Samples;Min_cycle;Max_cycle;Signal;HPM_P1;HPM_P2
2021/07/26 00:01:00;;;;;;;13.48;12.07;;;;;;;19.62;73.24;100686.68;1762866;81;21341;-81
2021/07/26 00:03:26;;;;;;;13.28;11.97;;;;;;;19.66;73.31;100684.48;1764289;81;22747;-81
2021/07/26 00:05:58;;;;;;;15.18;12.47;;;;;;;19.68;73.48;100689.98;1757383;80;20967;-81
2021/07/26 00:08:26;;;;;;;13.88;12.10;;;;;;;19.70;73.61;100685.31;1753587;80;21056;-81
2021/07/26 00:11:01;;;;;;;14.10;12.60;;;;;;;19.73;73.60;100684.95;1743485;80;21024;-81
2021/07/26 00:13:29;;;;;;;14.45;12.95;;;;;;;19.75;73.57;100683.44;1731164;83;20947;-82
2021/07/26 00:15:56;;;;;;;16.87;12.85;;;;;;;19.78;73.58;100683.59;1718102;83;21831;-79
2021/07/26 00:18:26;;;;;;;15.85;12.65;;;;;;;19.83;73.65;100687.94;1739032;80;21633;-79
2021/07/26 00:20:53;;;;;;;16.57;13.35;;;;;;;19.86;73.60;100687.07;1747840;82;21086;-79
2021/07/26 00:23:20;;;;;;;14.38;12.47;;;;;;;19.90;73.56;100684.90;1747423;80;20935;-81
2021/07/26 00:25:49;;;;;;;14.45;12.95;;;;;;;19.90;73.54;100685.73;1743364;80;20995;-81
2021/07/26 00:28:16;;;;;;;14.53;12.90;;;;;;;19.91;73.57;100685.22;1747818;82;21745;-80
2021/07/26 00:30:42;;;;;;;13.85;12.45;;;;;;;19.92;73.58;100684.21;1745790;82;20914;-81
2021/07/26 00:34:08;;;;;;;16.23;12.58;;;;;;;19.92;73.54;100682.88;1747881;82;20917;-81
2021/07/26 00:36:37;;;;;;;15.88;13.05;;;;;;;19.93;73.52;100684.54;1746716;80;21914;-80
2021/07/26 00:39:04;;;;;;;15.53;12.68;;;;;;;19.94;73.45;100687.55;1718734;82;20964;-81
2021/07/26 00:41:32;;;;;;;14.47;12.98;;;;;;;19.93;73.44;100680.52;1718414;80;21869;-80
2021/07/26 00:43:59;;;;;;;17.55;13.25;;;;;;;19.94;73.42;100680.84;1733983;80;20975;-81
2021/07/26 00:46:25;;;;;;;16.42;13.60;;;;;;;19.92;73.43;100681.02;1736194;80;20980;-81
2021/07/26 00:48:53;;;;;;;14.85;13.35;;;;;;;19.93;73.42;100673.31;1722881;82;21004;-81
2021/07/26 00:51:19;;;;;;;16.27;13.35;;;;;;;19.93;73.43;100685.38;1713357;82;20983;-81
2021/07/26 00:53:46;;;;;;;15.48;13.18;;;;;;;19.91;73.53;100679.86;1747777;82;21884;-80
2021/07/26 00:56:13;;;;;;;16.05;13.88;;;;;;;19.90;73.58;100677.69;1728035;80;20975;-80
2021/07/26 00:58:40;;;;;;;14.93;13.40;;;;;;;19.91;73.66;100683.88;1729869;81;21420;-80
2021/07/26 01:01:07;;;;;;;15.10;13.53;;;;;;;19.90;73.74;100688.41;1759835;80;21496;-80
2021/07/26 01:03:33;;;;;;;14.87;13.53;;;;;;;19.90;73.81;100683.55;1735660;81;21377;-81
2021/07/26 01:06:00;;;;;;;16.95;13.75;;;;;;;19.89;73.85;100681.38;1750664;81;22299;-80
2021/07/26 01:08:27;;;;;;;14.78;13.38;;;;;;;19.87;73.85;100678.02;1771552;78;20963;-81
2021/07/26 01:10:53;;;;;;;14.98;13.35;;;;;;;19.86;73.83;100675.01;1751138;82;21102;-81
2021/07/26 01:13:24;;;;;;;14.20;12.80;;;;;;;19.81;73.84;100668.02;1751009;82;20984;-81
2021/07/26 01:15:48;;;;;;;14.73;13.28;;;;;;;19.79;73.86;100670.04;1751731;78;20972;-81
2021/07/26 01:18:27;;;;;;;14.73;13.22;;;;;;;19.77;73.87;100669.35;1769683;78;21772;-81
2021/07/26 01:21:00;;;;;;;15.72;13.50;;;;;;;19.75;73.91;100670.04;1781577;80;21264;-81
2021/07/26 01:23:30;;;;;;;14.93;13.15;;;;;;;19.74;73.96;100668.37;1780099;80;21043;-80
2021/07/26 01:25:57;;;;;;;15.40;13.78;;;;;;;19.71;73.99;100666.05;1780150;78;20980;-81
2021/07/26 01:28:28;;;;;;;15.28;13.68;;;;;;;19.68;74.01;100669.89;1780075;78;21094;-81
2021/07/26 01:30:56;;;;;;;15.55;13.95;;;;;;;19.67;74.10;100666.05;1781788;79;21837;-81
2021/07/26 01:33:23;;;;;;;15.08;13.68;;;;;;;19.65;74.14;100670.24;1781647;80;20941;-81
2021/07/26 01:35:50;;;;;;;16.23;14.30;;;;;;;19.64;74.20;100671.25;1760064;78;21379;-80
2021/07/26 01:38:16;;;;;;;15.03;13.62;;;;;;;19.63;74.24;100670.09;1754504;78;21110;-80
2021/07/26 01:40:44;;;;;;;16.40;14.70;;;;;;;19.61;74.36;100666.77;1781928;79;20968;-81
2021/07/26 01:43:11;;;;;;;15.72;14.13;;;;;;;19.57;74.45;100668.93;1773459;80;21849;-81
2021/07/26 01:45:39;;;;;;;16.40;14.53;;;;;;;19.58;74.55;100669.26;1754872;80;21002;-82
2021/07/26 01:48:20;;;;;;;16.42;14.23;;;;;;;19.57;74.65;100667.59;1752266;80;21007;-81
2021/07/26 01:51:00;;;;;;;15.55;13.93;;;;;;;19.57;74.74;100669.44;1751240;80;21619;-81
2021/07/26 01:53:26;;;;;;;16.02;14.00;;;;;;;19.58;74.86;100663.06;1779729;80;20984;-81
2021/07/26 01:55:53;;;;;;;16.77;15.10;;;;;;;19.59;74.98;100666.07;1761715;78;21808;-81
2021/07/26 01:58:19;;;;;;;15.78;14.18;;;;;;;19.60;75.11;100667.77;1744096;82;21040;-81
2021/07/26 02:00:46;;;;;;;17.05;14.70;;;;;;;19.59;75.25;100668.28;1764271;79;21433;-81
2021/07/26 02:03:13;;;;;;;15.28;13.68;;;;;;;19.63;75.29;100668.75;1772014;81;21401;-82
2021/07/26 02:05:39;;;;;;;15.53;14.00;;;;;;;19.67;75.38;100670.06;1754773;79;21400;-82
2021/07/26 02:08:07;;;;;;;15.93;14.33;;;;;;;19.69;75.46;100668.91;1743182;79;21535;-81
2021/07/26 02:10:33;;;;;;;15.43;13.93;;;;;;;19.70;75.55;100663.87;1751033;79;20978;-82
2021/07/26 02:13:00;;;;;;;16.07;13.95;;;;;;;19.71;75.64;100668.22;1761546;81;20925;-81
2021/07/26 02:15:26;;;;;;;15.40;13.65;;;;;;;19.72;75.70;100664.53;1741703;81;20984;-81
2021/07/26 02:17:53;;;;;;;16.05;14.45;;;;;;;19.73;75.72;100666.70;1752309;80;20949;-81
2021/07/26 02:20:21;;;;;;;15.72;14.15;;;;;;;19.75;75.74;100669.20;1769685;79;22326;-81
2021/07/26 02:22:47;;;;;;;16.02;14.50;;;;;;;19.76;75.72;100664.17;1770656;81;21008;-81
2021/07/26 02:25:15;;;;;;;15.63;13.98;;;;;;;19.77;75.72;100669.86;1771666;81;20944;-81
2021/07/26 02:27:42;;;;;;;15.88;14.20;;;;;;;19.77;75.72;100669.35;1746306;79;20949;-81
2021/07/26 02:30:09;;;;;;;15.85;13.98;;;;;;;19.81;75.65;100672.54;1741001;82;21051;-82
2021/07/26 02:32:35;;;;;;;16.60;14.07;;;;;;;19.84;75.60;100682.91;1764631;79;22180;-81
2021/07/26 02:35:04;;;;;;;15.83;13.68;;;;;;;19.83;75.61;100674.53;1771408;81;20948;-80
2021/07/26 02:37:30;;;;;;;15.40;13.90;;;;;;;19.84;75.60;100677.54;1749515;79;20941;-80
2021/07/26 02:39:59;;;;;;;15.43;13.83;;;;;;;19.85;75.64;100673.34;1740996;82;21016;-80
2021/07/26 02:42:26;;;;;;;15.38;13.83;;;;;;;19.83;75.68;100671.85;1748606;80;21416;-80
2021/07/26 02:44:53;;;;;;;15.20;13.68;;;;;;;19.82;75.72;100671.52;1763030;79;21791;-80
2021/07/26 02:47:19;;;;;;;15.35;13.85;;;;;;;19.84;75.71;100675.70;1698198;81;20965;-80
2021/07/26 02:49:45;;;;;;;15.93;14.33;;;;;;;19.85;75.76;100673.84;1747578;79;21012;-80
2021/07/26 02:52:12;;;;;;;16.42;14.60;;;;;;;19.86;75.77;100675.01;1770318;79;20946;-80
2021/07/26 02:54:39;;;;;;;15.00;13.58;;;;;;;19.89;75.78;100681.38;1747475;79;20949;-80
2021/07/26 02:57:05;;;;;;;17.12;13.18;;;;;;;19.93;75.74;100675.98;1742925;79;22443;-79
2021/07/26 02:59:33;;;;;;;14.58;13.03;;;;;;;19.96;75.73;100674.28;1754552;79;21428;-80
2021/07/26 03:01:59;;;;;;;15.15;13.35;;;;;;;19.98;75.75;100668.27;1769102;81;20941;-81
2021/07/26 03:04:26;;;;;;;15.78;13.65;;;;;;;20.01;75.74;100673.27;1767150;80;21023;-80
2021/07/26 03:06:52;;;;;;;17.32;13.22;;;;;;;20.04;75.74;100673.41;1777937;79;20933;-80
2021/07/26 03:09:19;;;;;;;15.28;13.72;;;;;;;20.08;75.69;100672.58;1779391;80;21722;-79
2021/07/26 03:11:45;;;;;;;15.00;13.50;;;;;;;20.11;75.70;100672.22;1779533;80;21084;-80
2021/07/26 03:14:12;;;;;;;15.95;14.00;;;;;;;20.15;75.66;100682.40;1757499;80;21022;-81
2021/07/26 03:16:38;;;;;;;15.10;13.45;;;;;;;20.18;75.65;100681.23;1767254;80;21360;-81
2021/07/26 03:19:05;;;;;;;15.32;13.72;;;;;;;20.20;75.67;100683.23;1772397;80;21417;-80
2021/07/26 03:21:32;;;;;;;15.40;13.90;;;;;;;20.22;75.67;100683.38;1748483;82;22662;-80
2021/07/26 03:23:58;;;;;;;15.72;13.90;;;;;;;20.25;75.66;100684.34;1750119;80;21454;-80
2021/07/26 03:26:24;;;;;;;14.63;13.22;;;;;;;20.27;75.60;100682.35;1749572;80;21018;-80
2021/07/26 03:28:51;;;;;;;15.93;14.33;;;;;;;20.29;75.57;100691.55;1729609;80;21102;-79
2021/07/26 03:31:17;;;;;;;15.58;14.07;;;;;;;20.29;75.54;100688.88;1761447;80;20960;-80
2021/07/26 03:33:45;;;;;;;15.50;14.00;;;;;;;20.30;75.47;100690.54;1775537;80;21698;-80
2021/07/26 03:36:14;;;;;;;15.38;13.88;;;;;;;20.31;75.47;100692.20;1769677;80;21364;-80
2021/07/26 03:38:41;;;;;;;15.38;13.72;;;;;;;20.32;75.43;100697.89;1761933;80;20972;-80
2021/07/26 03:41:07;;;;;;;16.05;14.38;;;;;;;20.32;75.39;100695.22;1753767;80;21020;-79
2021/07/26 03:43:34;;;;;;;19.70;14.25;;;;;;;20.34;75.40;100693.69;1775020;79;21019;-80
2021/07/26 03:46:01;;;;;;;18.95;14.13;;;;;;;20.34;75.45;100695.03;1777444;80;22385;-80
2021/07/26 03:48:27;;;;;;;16.37;14.40;;;;;;;20.34;75.49;100695.87;1779056;79;21072;-80
2021/07/26 03:50:54;;;;;;;15.88;14.38;;;;;;;20.38;75.49;100694.52;1759800;79;20997;-80
2021/07/26 03:53:21;;;;;;;16.23;14.53;;;;;;;20.40;75.49;100693.83;1771048;79;20943;-79
2021/07/26 03:55:47;;;;;;;15.88;14.28;;;;;;;20.45;75.44;100687.44;1818461;77;21015;-78
2021/07/26 03:58:13;;;;;;;15.72;14.13;;;;;;;20.50;75.50;100683.72;1813761;77;22164;-81
2021/07/26 04:00:41;;;;;;;15.83;14.15;;;;;;;20.55;75.49;100691.22;1838648;77;20960;-81
2021/07/26 04:05:47;;;;;;;15.72;14.23;;;;;;;20.64;75.47;100693.34;1816276;77;21057;-81
2021/07/26 04:08:24;;;;;;;15.58;14.07;;;;;;;20.65;75.69;100695.01;1839921;77;20992;-81
2021/07/26 04:11:08;;;;;;;16.27;14.47;;;;;;;20.77;75.51;100698.45;1820539;78;21391;-81
2021/07/26 04:13:32;;;;;;;16.30;14.15;;;;;;;20.93;75.20;100696.62;1804693;78;20992;-80
2021/07/26 04:15:58;;;;;;;18.50;14.47;;;;;;;21.10;74.97;100697.65;1802920;77;21451;-80
2021/07/26 04:18:25;;;;;;;16.30;14.60;;;;;;;21.27;74.75;100702.39;1823486;77;21039;-85
2021/07/26 04:20:52;;;;;;;16.87;13.95;;;;;;;21.39;74.78;100704.11;1839657;77;20936;-86
2021/07/26 04:23:19;;;;;;;15.60;12.78;;;;;;;21.55;74.65;100708.48;1822299;77;22606;-81
2021/07/26 04:25:46;;;;;;;15.05;12.40;;;;;;;21.75;74.37;100696.15;1783493;78;21513;-77
2021/07/26 04:28:12;;;;;;;14.73;11.45;;;;;;;21.78;74.36;100695.77;1821007;78;21431;-86
2021/07/26 04:30:39;;;;;;;14.78;11.03;;;;;;;22.11;73.83;100696.23;1822660;77;20952;-85
2021/07/26 04:33:05;;;;;;;13.70;9.70;;;;;;;22.36;73.37;100702.59;1798452;78;21044;-84
2021/07/26 04:35:31;;;;;;;14.85;9.18;;;;;;;22.57;72.85;100710.16;1789507;77;21797;-88
2021/07/26 04:37:59;;;;;;;11.48;8.78;;;;;;;22.79;72.09;100705.63;1788281;79;21380;-86
2021/07/26 04:40:25;;;;;;;15.13;8.63;;;;;;;23.00;71.31;100708.02;1814592;77;21452;-85
2021/07/26 04:42:53;;;;;;;12.75;8.43;;;;;;;23.22;70.35;100699.37;1828856;77;20955;-80
2021/07/26 04:45:19;;;;;;;11.50;8.28;;;;;;;23.42;69.70;100700.33;1794780;77;21071;-84
2021/07/26 04:47:46;;;;;;;13.85;8.13;;;;;;;23.62;68.98;100701.83;1854323;77;21813;-79
2021/07/26 04:50:13;;;;;;;13.00;8.10;;;;;;;23.82;68.46;100701.41;1816169;77;20940;-84
2021/07/26 04:52:40;;;;;;;15.48;8.48;;;;;;;23.97;67.65;100699.94;1789402;78;21087;-83
2021/07/26 04:55:08;;;;;;;14.23;8.13;;;;;;;24.14;66.96;100697.20;1818142;77;21510;-82
2021/07/26 04:57:34;;;;;;;12.25;7.87;;;;;;;24.26;66.32;100698.79;1809229;77;21028;-81
2021/07/26 05:00:01;;;;;;;11.75;8.05;;;;;;;24.42;65.90;100697.11;1803914;77;22140;-82
2021/07/26 05:02:27;;;;;;;15.55;8.70;;;;;;;24.54;65.59;100702.73;1796119;78;21001;-78
2021/07/26 05:04:54;;;;;;;12.63;8.38;;;;;;;24.65;65.37;100699.94;1790331;78;21000;-82
2021/07/26 05:07:21;;;;;;;11.63;8.78;;;;;;;24.57;65.57;100698.78;1787286;79;20949;-82
2021/07/26 05:09:48;;;;;;;14.93;8.90;;;;;;;24.70;65.42;100696.09;1783498;79;21001;-82
2021/07/26 05:12:15;;;;;;;10.43;8.40;;;;;;;24.83;65.15;100696.11;1792712;79;21773;-83
2021/07/26 05:14:43;;;;;;;14.40;8.73;;;;;;;24.93;64.98;100692.48;1781276;78;21503;-88
2021/07/26 05:17:10;;;;;;;14.10;9.05;;;;;;;24.99;64.75;100698.38;1786002;79;20937;-83
2021/07/26 05:19:36;;;;;;;11.45;8.53;;;;;;;25.00;64.30;100691.13;1809538;79;20981;-88
2021/07/26 05:22:04;;;;;;;11.18;8.33;;;;;;;25.02;63.67;100693.97;1784650;79;20906;-82
2021/07/26 05:24:31;;;;;;;15.23;8.18;;;;;;;25.06;63.52;100699.25;1777188;79;22300;-85
2021/07/26 05:27:01;;;;;;;10.15;7.83;;;;;;;25.10;63.28;100696.46;1775851;80;21032;-83
2021/07/26 05:29:28;;;;;;;9.28;8.25;;;;;;;25.16;63.32;100695.30;1797101;79;20949;-85
2021/07/26 05:31:55;;;;;;;13.98;8.28;;;;;;;24.94;63.73;100695.48;1785772;78;21401;-85
2021/07/26 05:34:21;;;;;;;11.03;8.58;;;;;;;24.83;64.38;100694.77;1783399;79;20940;-88
2021/07/26 05:36:48;;;;;;;14.30;8.43;;;;;;;24.80;64.51;100696.51;1797544;79;22228;-87
2021/07/26 05:39:14;;;;;;;13.83;8.63;;;;;;;24.79;64.75;100695.68;1809863;79;21015;-84
2021/07/26 05:41:41;;;;;;;16.02;9.28;;;;;;;24.83;64.84;100694.77;1800670;79;20945;-87
2021/07/26 05:44:08;;;;;;;11.22;9.05;;;;;;;24.88;64.61;100699.01;1783861;79;21573;-85
2021/07/26 05:46:35;;;;;;;14.98;9.03;;;;;;;24.96;64.66;100700.16;1785330;78;21059;-84
2021/07/26 05:49:02;;;;;;;9.58;8.18;;;;;;;25.05;64.79;100701.64;1791841;79;22733;-84
2021/07/26 05:51:28;;;;;;;13.70;8.73;;;;;;;25.11;64.72;100698.64;1734628;82;20986;-86
2021/07/26 05:53:54;;;;;;;11.35;8.50;;;;;;;25.18;64.64;100701.31;1723875;81;21529;-83
2021/07/26 05:56:21;;;;;;;18.12;8.28;;;;;;;25.19;64.38;100697.57;1749957;81;21388;-81
2021/07/26 05:58:49;;;;;;;12.60;8.50;;;;;;;25.24;64.64;100704.02;1737494;82;21085;-85
2021/07/26 06:01:36;;;;;;;13.18;8.33;;;;;;;25.28;64.30;100699.84;1729863;82;22671;-85
2021/07/26 06:03:52;;;;;;;10.38;7.92;;;;;;;25.32;64.05;100693.52;1709551;81;21434;-91
2021/07/26 06:06:18;;;;;;;9.60;8.00;;;;;;;25.41;63.75;100697.66;1710481;84;21069;-84
2021/07/26 06:08:46;;;;;;;14.18;7.80;;;;;;;25.51;62.98;100698.05;1747035;81;21484;-88
2021/07/26 06:11:13;;;;;;;14.38;7.87;;;;;;;25.58;62.07;100691.29;1740000;82;20883;-89
2021/07/26 06:13:41;;;;;;;12.93;7.92;;;;;;;25.63;61.64;100692.81;1726424;82;21533;-88
2021/07/26 06:16:08;;;;;;;17.20;7.87;;;;;;;25.71;61.54;100685.03;1710280;84;21465;-85
2021/07/26 06:18:35;;;;;;;11.43;7.78;;;;;;;25.78;61.45;100689.91;1721883;82;21546;-83
2021/07/26 06:21:07;;;;;;;15.45;7.65;;;;;;;25.87;61.66;100688.62;1729455;82;21278;-83
2021/07/26 06:23:34;;;;;;;13.18;7.85;;;;;;;25.95;61.28;100683.77;1722609;81;20887;-86
2021/07/26 06:26:05;;;;;;;14.78;8.03;;;;;;;26.03;61.08;100690.81;1729563;82;21791;-83
2021/07/26 06:28:30;;;;;;;11.78;7.95;;;;;;;26.12;61.04;100691.41;1726365;81;21429;-85
2021/07/26 06:30:57;;;;;;;12.82;8.30;;;;;;;26.17;60.88;100689.72;1723386;82;21453;-87
2021/07/26 06:33:23;;;;;;;14.55;7.83;;;;;;;26.25;60.59;100688.13;1728986;81;21624;-88
2021/07/26 06:35:50;;;;;;;12.18;7.75;;;;;;;26.29;60.21;100687.16;1717479;81;21517;-85
2021/07/26 06:38:16;;;;;;;11.68;7.58;;;;;;;26.32;60.05;100689.41;1733477;82;21537;-81
2021/07/26 06:40:44;;;;;;;15.35;8.45;;;;;;;26.37;60.71;100686.07;1715994;81;20963;-82
2021/07/26 06:43:10;;;;;;;12.65;8.23;;;;;;;26.43;60.78;100690.63;1719026;82;21421;-84
2021/07/26 06:45:37;;;;;;;15.88;8.75;;;;;;;26.48;60.38;100687.58;1692056;84;21521;-84
2021/07/26 06:48:04;;;;;;;15.03;8.33;;;;;;;26.70;58.50;100689.41;1715510;81;21565;-85
2021/07/26 06:50:30;;;;;;;11.75;8.25;;;;;;;26.91;57.61;100690.91;1690999;84;21817;-85
2021/07/26 06:52:57;;;;;;;19.45;8.63;;;;;;;27.07;58.41;100693.63;1732048;82;21054;-88
2021/07/26 06:55:24;;;;;;;13.98;8.23;;;;;;;27.01;58.51;100693.94;1737049;81;21022;-86
2021/07/26 06:57:50;;;;;;;10.93;7.80;;;;;;;26.90;58.03;100693.84;1737159;81;20979;-84
2021/07/26 07:00:18;;;;;;;12.30;7.58;;;;;;;27.02;58.90;100697.48;1730582;81;21652;-85
2021/07/26 07:02:44;;;;;;;15.25;7.70;;;;;;;27.03;60.05;100695.96;1723783;82;22274;-85
2021/07/26 07:05:10;;;;;;;13.43;7.97;;;;;;;27.13;59.79;100696.81;1730418;82;21181;-85
2021/07/26 07:07:37;;;;;;;11.48;8.18;;;;;;;27.21;59.42;100699.73;1726667;82;21497;-83
2021/07/26 07:10:04;;;;;;;11.43;8.75;;;;;;;27.15;59.68;100708.26;1715277;82;20990;-81
2021/07/26 07:12:31;;;;;;;17.40;8.70;;;;;;;27.28;58.99;100702.70;1710263;84;20975;-85
2021/07/26 07:14:58;;;;;;;15.03;8.38;;;;;;;27.30;58.53;100708.72;1711403;81;22234;-84
2021/07/26 07:17:24;;;;;;;13.90;8.38;;;;;;;27.37;58.73;100709.49;1715751;83;21296;-86
2021/07/26 07:19:51;;;;;;;16.00;8.30;;;;;;;27.49;58.63;100711.46;1719279;81;21405;-82
2021/07/26 07:22:20;;;;;;;9.95;8.00;;;;;;;27.57;58.46;100717.43;1724388;82;21632;-84
2021/07/26 07:24:47;;;;;;;11.28;8.18;;;;;;;27.72;58.08;100715.75;1729205;82;21022;-86
2021/07/26 07:27:14;;;;;;;13.95;8.75;;;;;;;27.82;57.80;100716.05;1730882;81;21731;-82
2021/07/26 07:29:41;;;;;;;17.85;8.18;;;;;;;27.90;57.62;100722.53;1739840;82;20946;-80
2021/07/26 07:32:12;;;;;;;11.95;8.73;;;;;;;27.98;57.88;100712.39;1734005;82;20994;-85
2021/07/26 07:34:36;;;;;;;12.43;8.70;;;;;;;27.95;56.85;100723.19;1716516;82;21045;-87
2021/07/26 07:37:05;;;;;;;9.68;7.65;;;;;;;27.92;56.69;100719.58;1718108;82;20941;-84
2021/07/26 07:39:31;;;;;;;13.50;7.90;;;;;;;27.92;57.07;100720.41;1738091;82;21751;-88
2021/07/26 07:41:58;;;;;;;12.03;8.20;;;;;;;27.92;56.63;100724.48;1739870;81;21022;-87
2021/07/26 07:44:29;;;;;;;15.13;7.83;;;;;;;27.96;56.92;100726.20;1738312;82;21053;-85
2021/07/26 07:46:54;;;;;;;13.15;8.13;;;;;;;28.04;57.21;100719.64;1739514;82;21018;-85
2021/07/26 07:49:22;;;;;;;18.40;7.75;;;;;;;28.16;56.92;100728.67;1739878;82;21002;-84
2021/07/26 07:51:49;;;;;;;14.55;8.10;;;;;;;28.22;56.32;100725.88;1738218;81;21762;-86
2021/07/26 07:54:15;;;;;;;11.38;8.10;;;;;;;28.29;56.03;100734.51;1740036;82;21049;-83
2021/07/26 07:56:42;;;;;;;14.95;8.50;;;;;;;28.34;55.83;100731.38;1723734;82;21018;-84
2021/07/26 07:59:10;;;;;;;16.82;8.45;;;;;;;28.40;55.79;100739.98;1712694;83;21085;-80
2021/07/26 08:01:37;;;;;;;18.30;8.30;;;;;;;28.28;55.87;100735.04;1722730;80;21025;-85
2021/07/26 08:04:04;;;;;;;11.45;8.20;;;;;;;28.33;56.22;100736.52;1721904;83;21750;-84
2021/07/26 08:06:31;;;;;;;13.98;8.38;;;;;;;28.43;56.59;100742.77;1722101;83;20974;-84
2021/07/26 08:08:58;;;;;;;18.67;8.38;;;;;;;28.66;56.71;100744.72;1721813;83;21017;-81
2021/07/26 08:11:25;;;;;;;17.85;8.70;;;;;;;28.86;56.44;100744.45;1722865;82;21049;-82
2021/07/26 08:13:51;;;;;;;18.20;8.95;;;;;;;28.98;55.32;100739.88;1739772;81;21045;-82
2021/07/26 08:16:23;;;;;;;15.03;8.63;;;;;;;28.78;55.12;100745.08;1752171;82;21816;-80
2021/07/26 08:18:50;;;;;;;14.83;8.80;;;;;;;28.74;55.35;100748.47;1751339;81;20970;-84
2021/07/26 08:21:16;;;;;;;18.60;8.70;;;;;;;28.70;55.92;100746.77;1752197;82;21001;-79
2021/07/26 08:23:43;;;;;;;17.52;8.48;;;;;;;28.71;55.54;100748.41;1751876;82;20986;-79
2021/07/26 08:26:12;;;;;;;14.35;8.88;;;;;;;28.62;55.25;100743.01;1752350;81;20973;-78
2021/07/26 08:28:38;;;;;;;16.32;8.83;;;;;;;28.62;55.83;100746.26;1735604;81;21805;-80
2021/07/26 08:31:05;;;;;;;14.53;8.73;;;;;;;28.70;56.32;100737.78;1742952;82;21323;-79
2021/07/26 08:33:31;;;;;;;12.03;8.38;;;;;;;28.78;56.08;100740.17;1752207;82;20961;-75
2021/07/26 08:35:59;;;;;;;11.85;9.53;;;;;;;28.87;56.14;100741.49;1750094;81;21038;-77
2021/07/26 08:38:26;;;;;;;13.58;8.93;;;;;;;28.94;55.62;100733.23;1738357;81;21024;-77
2021/07/26 08:40:52;;;;;;;13.38;8.80;;;;;;;28.95;55.38;100737.11;1722158;83;21750;-77
2021/07/26 08:43:21;;;;;;;15.63;8.98;;;;;;;29.02;55.72;100737.81;1701460;83;20973;-80
2021/07/26 08:45:47;;;;;;;13.03;8.83;;;;;;;29.14;55.85;100737.81;1722320;83;21447;-77
2021/07/26 08:48:14;;;;;;;19.67;10.05;;;;;;;29.22;55.95;100740.19;1734163;81;21139;-79
2021/07/26 08:50:41;;;;;;;15.53;10.30;;;;;;;29.33;55.63;100741.25;1722240;83;21445;-76
2021/07/26 08:53:08;;;;;;;19.62;10.88;;;;;;;29.33;53.93;100732.56;1721911;83;22512;-77
2021/07/26 08:55:36;;;;;;;13.70;11.28;;;;;;;29.35;54.18;100744.59;1721840;83;21052;-76
2021/07/26 08:58:04;;;;;;;15.45;10.68;;;;;;;29.40;54.28;100732.45;1745345;80;21036;-76
2021/07/26 09:00:30;;;;;;;17.77;11.70;;;;;;;29.51;54.77;100734.90;1721883;83;21013;-76
2021/07/26 09:02:57;;;;;;;13.80;11.10;;;;;;;29.66;54.71;100738.51;1721937;83;21044;-76
2021/07/26 09:05:24;;;;;;;17.73;10.28;;;;;;;29.77;54.20;100732.21;1723166;82;22774;-75
2021/07/26 09:07:53;;;;;;;24.90;11.57;;;;;;;29.84;53.35;100731.55;1723803;81;21025;-75
2021/07/26 09:10:22;;;;;;;15.75;11.05;;;;;;;29.77;53.40;100733.04;1753505;80;20962;-80
2021/07/26 09:12:51;;;;;;;18.05;9.83;;;;;;;29.76;53.49;100732.75;1751814;82;21014;-80
2021/07/26 09:15:30;;;;;;;16.85;10.32;;;;;;;29.87;53.55;100738.70;1751751;81;21551;-78
2021/07/26 09:18:02;;;;;;;11.68;9.20;;;;;;;29.98;52.54;100737.02;1750035;81;21864;-80
2021/07/26 09:20:30;;;;;;;13.93;9.43;;;;;;;30.07;52.55;100732.88;1751198;82;21112;-79
2021/07/26 09:22:58;;;;;;;16.50;9.13;;;;;;;30.19;52.36;100735.55;1721913;83;21021;-79
2021/07/26 09:25:29;;;;;;;17.52;9.15;;;;;;;30.30;51.72;100733.31;1721933;83;21547;-81
2021/07/26 09:27:58;;;;;;;10.45;8.40;;;;;;;30.27;47.69;100724.27;1722871;81;21065;-82
2021/07/26 09:30:26;;;;;;;15.05;7.95;;;;;;;30.27;47.69;100724.27;1745676;81;21534;-82
2021/07/26 09:32:53;;;;;;;17.87;9.18;;;;;;;30.04;46.69;100733.34;1751729;82;20975;-84
2021/07/26 09:35:26;;;;;;;14.23;8.35;;;;;;;29.81;48.69;100725.20;1751870;82;20970;-82
2021/07/26 09:37:58;;;;;;;;;;;;;;;29.88;50.48;100728.63;1753624;81;20994;-83
2021/07/26 09:40:30;;;;;;;12.18;8.28;;;;;;;30.11;50.08;100732.70;1730849;81;20590;-81
2021/07/26 09:42:56;;;;;;;12.78;7.62;;;;;;;30.29;48.36;100722.66;1751833;82;21764;-81
2021/07/26 09:45:24;;;;;;;13.03;7.45;;;;;;;30.43;48.58;100716.69;1751585;81;20962;-81
2021/07/26 09:48:12;;;;;;;15.20;7.25;;;;;;;30.61;45.90;100713.45;1723109;81;21025;-81
2021/07/26 09:50:47;;;;;;;17.40;7.35;;;;;;;30.68;44.91;100717.69;1701896;83;21014;-85
2021/07/26 09:53:16;;;;;;;11.80;7.25;;;;;;;30.66;43.54;100713.03;1722209;83;20974;-82
2021/07/26 09:55:47;;;;;;;15.53;6.95;;;;;;;30.68;44.16;100708.69;1738563;82;21871;-82
2021/07/26 09:58:15;;;;;;;15.90;7.35;;;;;;;30.74;45.17;100714.53;1749909;81;20979;-82
2021/07/26 10:00:43;;;;;;;10.28;7.33;;;;;;;31.00;45.91;100717.15;1731089;81;20960;-83
2021/07/26 10:03:13;;;;;;;12.05;6.97;;;;;;;31.24;45.35;100714.55;1716960;83;21056;-81
2021/07/26 10:05:41;;;;;;;25.43;7.58;;;;;;;31.43;42.89;100712.91;1702921;82;21024;-80
2021/07/26 10:08:08;;;;;;;8.25;6.50;;;;;;;31.28;40.69;100715.71;1688209;85;21754;-83
2021/07/26 10:10:37;;;;;;;15.90;6.78;;;;;;;31.00;41.46;100712.52;1688456;85;21088;-81
2021/07/26 10:13:07;;;;;;;9.78;6.50;;;;;;;30.85;41.41;100705.97;1699830;82;21103;-81
2021/07/26 10:15:36;;;;;;;16.80;6.60;;;;;;;30.81;41.65;100708.92;1688321;85;21036;-80
2021/07/26 10:18:03;;;;;;;12.15;6.37;;;;;;;30.78;41.63;100703.41;1688332;85;21020;-81
2021/07/26 10:20:39;;;;;;;19.62;7.17;;;;;;;30.79;41.00;100700.99;1688214;85;21771;-82
2021/07/26 10:23:10;;;;;;;13.88;6.47;;;;;;;30.94;40.81;100701.77;1697305;82;21130;-82
2021/07/26 10:25:59;;;;;;;16.42;6.15;;;;;;;31.15;40.69;100697.45;1717793;82;21054;-84
2021/07/26 10:28:29;;;;;;;20.12;6.42;;;;;;;31.39;39.79;100698.12;1716484;82;21096;-82
2021/07/26 10:30:56;;;;;;;12.65;6.15;;;;;;;31.63;38.82;100686.70;1693751;82;21108;-81
2021/07/26 10:33:23;;;;;;;15.00;6.22;;;;;;;31.82;37.59;100685.88;1693434;83;21824;-83
2021/07/26 10:35:52;;;;;;;17.50;6.15;;;;;;;31.95;35.96;100688.78;1717037;83;21064;-81
2021/07/26 10:38:47;;;;;;;13.80;5.53;;;;;;;32.00;36.55;100688.81;1716967;83;21009;-83
2021/07/26 10:41:46;;;;;;;22.32;5.42;;;;;;;32.17;35.61;100686.83;1707752;82;20964;-85
2021/07/26 10:44:24;;;;;;;9.43;5.20;;;;;;;32.32;35.49;100677.98;1708780;82;20976;-81
2021/07/26 10:47:08;;;;;;;11.65;5.28;;;;;;;32.46;35.93;100690.16;1699731;83;22623;-80
2021/07/26 10:49:50;;;;;;;8.98;4.85;;;;;;;32.74;36.00;100690.95;1688261;83;21064;-81
2021/07/26 10:52:29;;;;;;;7.17;4.80;;;;;;;32.98;35.57;100683.22;1688279;85;21012;-83
2021/07/26 10:54:59;;;;;;;10.93;4.97;;;;;;;33.22;35.32;100669.98;1688340;83;21088;-83
2021/07/26 10:57:43;;;;;;;8.50;4.40;;;;;;;33.44;35.56;100672.59;1700685;82;20961;-85
2021/07/26 11:00:16;;;;;;;27.95;5.37;;;;;;;33.65;34.57;100676.25;1716786;82;21810;-83
2021/07/26 11:02:49;;;;;;;8.53;5.53;;;;;;;33.67;33.78;100687.77;1713613;82;21024;-84
2021/07/26 11:05:28;;;;;;;13.98;5.15;;;;;;;33.43;34.40;100686.02;1668608;85;21095;-84
2021/07/26 11:08:21;;;;;;;15.50;4.70;;;;;;;33.41;32.88;100683.55;1688239;85;20996;-83
2021/07/26 11:10:58;;;;;;;9.45;4.62;;;;;;;33.25;33.27;100689.44;1688249;85;20928;-84
2021/07/26 11:13:50;;;;;;;11.50;5.28;;;;;;;33.24;33.35;100689.70;1689080;82;21847;-81
2021/07/26 11:16:42;;;;;;;11.10;5.30;;;;;;;33.30;34.28;100689.48;1690321;84;21037;-82
2021/07/26 11:19:49;;;;;;;12.95;5.40;;;;;;;33.61;34.94;100682.00;1651679;84;20970;-83
2021/07/26 11:22:22;;;;;;;12.07;5.78;;;;;;;33.98;33.98;100684.09;1688243;85;21641;-83
2021/07/26 11:24:51;;;;;;;9.35;5.58;;;;;;;34.18;33.52;100687.44;1699531;83;21515;-83